Airfield :
LOGIN :

Register | Disclaimer

   EN    FR    IT 

 










Legend :    VFR   Marginal VFR   IFR   Intensive IFR   Very Intensive IFR
Visi :
Ceiling :
>= 8 km
>= 3000ft
5 to 8 km
1000 to 3000 ft
1500m to 5 km
500 to 1000 ft
800 to 1500m
200 to 500 ft
< 800m
< 200 ft
Symbols :   Thunderstorms  Fog  Heavy snow  Heavy precipitations  Wind > 20 kt
SIGMETs :     Misc.  Thunderstorms  Icing  Turbulence  Mountain Waves  Volcanic Ashes







- Airport Elevation : 1325 ft
- IATA code : EBU
- Download approach charts


LFMH - St-Etienne Boutheon

CURRENT METAR :
  • 152230Z AUTO VRB01KT CAVOK 13/10 Q1016

EXPIRED METARs :
  • 152200Z AUTO 00000KT CAVOK 13/10 Q1016
  • 152130Z AUTO VRB02KT CAVOK 13/10 Q1016
  • 152100Z AUTO VRB02KT CAVOK 13/11 Q1015
  • 152030Z AUTO VRB01KT CAVOK 13/11 Q1015
  • 152000Z AUTO 00000KT CAVOK 14/10 Q1015 BECMG 22010KT

TAF TAF LFMH
Valid from the 15 at 15:00 until the 16 at 15:00 UTC


151400Z 1515/1615 22010KT CAVOK
PROB30
TEMPO 1515/1518 16010G25KT RA SCT033 OVC080
ATIS : +33 4 77 36 17 51
No reported NOTAMs for that airfield.



MET'MAP, your aeronautical weather chart ! - Copyright ORBIFLY December 2007 - Disclaimer

ORBIFLY MET'MAP TEAM :

Programming & Development : Alexandra Zaïnal
Concept & Development : Baudouin d'Aumeries
Co-Development & Prog : Marc-Olivier Méhu
Technical & hardware support : Manuel Goepfert

Contact : metmap@orbifly.com




SOURCES & CREDITS :

   NOAA